Terminal Aerodrome Forecast
Issued by NWS

Home | Current Version | Previous Version | Text Only | Print | Product List | Glossary On
Versions: 1 2 3 4 5 6 7 8 9 10 11 12 13 14 15 16 17 18 19 20 21 22 23 24 25 26 27 28 29 30 31 32
000
FTUS43 KDMX 172320
TAFMCW
TAF
KMCW 172320Z 1800/1824 29018G22KT P6SM BKN035
     FM180200 31007KT P6SM FEW110
     FM181300 27005KT P6SM VCSH BKN050
     FM181800 18007KT P6SM BKN060
     FM182200 34005KT P6SM SCT060=

USA.gov is the U.S. government's official web portal to all federal, state and local government web resources and services.